sensor_id;sensor_type;location;lat;lon;timestamp;P1;durP1;ratioP1;P2;durP2;ratioP2
31638;SDS011;18248;51.522;7.020;2022-08-03T00:02:43;3.60;;;2.75;;
31638;SDS011;18248;51.522;7.020;2022-08-03T00:05:41;8.45;;;3.40;;
31638;SDS011;18248;51.522;7.020;2022-08-03T00:08:40;9.30;;;3.33;;
31638;SDS011;18248;51.522;7.020;2022-08-03T00:11:38;7.35;;;3.17;;
31638;SDS011;18248;51.522;7.020;2022-08-03T00:14:37;6.88;;;3.33;;
31638;SDS011;18248;51.522;7.020;2022-08-03T00:17:35;7.68;;;3.42;;
31638;SDS011;18248;51.522;7.020;2022-08-03T00:20:34;6.43;;;3.47;;
31638;SDS011;18248;51.522;7.020;2022-08-03T00:23:33;6.82;;;3.28;;
31638;SDS011;18248;51.522;7.020;2022-08-03T00:26:32;6.70;;;3.42;;
31638;SDS011;18248;51.522;7.020;2022-08-03T00:29:31;5.70;;;3.20;;
31638;SDS011;18248;51.522;7.020;2022-08-03T00:32:29;7.05;;;3.72;;
31638;SDS011;18248;51.522;7.020;2022-08-03T00:35:28;9.13;;;3.30;;
31638;SDS011;18248;51.522;7.020;2022-08-03T00:38:27;7.28;;;4.20;;
31638;SDS011;18248;51.522;7.020;2022-08-03T00:41:25;9.93;;;3.60;;
31638;SDS011;18248;51.522;7.020;2022-08-03T00:44:24;10.70;;;4.15;;
31638;SDS011;18248;51.522;7.020;2022-08-03T00:47:22;10.88;;;3.50;;
31638;SDS011;18248;51.522;7.020;2022-08-03T00:50:21;13.90;;;4.13;;
31638;SDS011;18248;51.522;7.020;2022-08-03T00:53:22;9.73;;;3.97;;
31638;SDS011;18248;51.522;7.020;2022-08-03T00:56:21;9.05;;;3.70;;
31638;SDS011;18248;51.522;7.020;2022-08-03T00:59:20;8.80;;;3.17;;
31638;SDS011;18248;51.522;7.020;2022-08-03T01:02:19;5.03;;;2.95;;
31638;SDS011;18248;51.522;7.020;2022-08-03T01:05:18;7.40;;;3.50;;
31638;SDS011;18248;51.522;7.020;2022-08-03T01:11:46;7.07;;;2.92;;
31638;SDS011;18248;51.522;7.020;2022-08-03T01:14:59;5.88;;;3.40;;
31638;SDS011;18248;51.522;7.020;2022-08-03T01:18:25;12.55;;;4.32;;
31638;SDS011;18248;51.522;7.020;2022-08-03T01:21:39;13.98;;;4.20;;
31638;SDS011;18248;51.522;7.020;2022-08-03T01:32:01;5.95;;;3.58;;
31638;SDS011;18248;51.522;7.020;2022-08-03T01:35:09;9.38;;;4.13;;
31638;SDS011;18248;51.522;7.020;2022-08-03T01:38:12;10.88;;;3.42;;
31638;SDS011;18248;51.522;7.020;2022-08-03T01:41:19;7.97;;;3.15;;
31638;SDS011;18248;51.522;7.020;2022-08-03T01:44:21;21.55;;;4.38;;
31638;SDS011;18248;51.522;7.020;2022-08-03T01:47:20;11.00;;;4.25;;
31638;SDS011;18248;51.522;7.020;2022-08-03T01:50:21;12.07;;;4.50;;
31638;SDS011;18248;51.522;7.020;2022-08-03T01:53:24;14.48;;;4.25;;
31638;SDS011;18248;51.522;7.020;2022-08-03T01:56:23;5.72;;;3.22;;
31638;SDS011;18248;51.522;7.020;2022-08-03T01:59:24;8.70;;;3.85;;
31638;SDS011;18248;51.522;7.020;2022-08-03T02:02:24;10.80;;;4.00;;
31638;SDS011;18248;51.522;7.020;2022-08-03T02:05:24;11.27;;;3.42;;
31638;SDS011;18248;51.522;7.020;2022-08-03T02:08:25;13.50;;;4.30;;
31638;SDS011;18248;51.522;7.020;2022-08-03T02:11:26;14.77;;;4.40;;
31638;SDS011;18248;51.522;7.020;2022-08-03T02:14:27;15.98;;;4.57;;
31638;SDS011;18248;51.522;7.020;2022-08-03T02:17:26;6.63;;;2.88;;
31638;SDS011;18248;51.522;7.020;2022-08-03T02:20:26;6.30;;;2.97;;
31638;SDS011;18248;51.522;7.020;2022-08-03T02:23:30;8.70;;;3.47;;
31638;SDS011;18248;51.522;7.020;2022-08-03T02:26:29;6.50;;;3.17;;
31638;SDS011;18248;51.522;7.020;2022-08-03T02:29:30;7.40;;;3.35;;
31638;SDS011;18248;51.522;7.020;2022-08-03T02:32:31;8.63;;;3.60;;
31638;SDS011;18248;51.522;7.020;2022-08-03T02:35:33;6.25;;;2.97;;
31638;SDS011;18248;51.522;7.020;2022-08-03T02:38:34;5.20;;;3.38;;
31638;SDS011;18248;51.522;7.020;2022-08-03T02:41:37;7.28;;;3.60;;
31638;SDS011;18248;51.522;7.020;2022-08-03T02:44:40;5.22;;;3.50;;
31638;SDS011;18248;51.522;7.020;2022-08-03T02:47:44;9.30;;;3.22;;
31638;SDS011;18248;51.522;7.020;2022-08-03T02:50:45;7.47;;;2.97;;
31638;SDS011;18248;51.522;7.020;2022-08-03T02:53:45;7.85;;;2.65;;
31638;SDS011;18248;51.522;7.020;2022-08-03T02:56:45;7.30;;;3.75;;
31638;SDS011;18248;51.522;7.020;2022-08-03T02:59:45;6.55;;;2.95;;
31638;SDS011;18248;51.522;7.020;2022-08-03T03:02:44;9.93;;;3.70;;
31638;SDS011;18248;51.522;7.020;2022-08-03T03:05:43;5.45;;;3.38;;
31638;SDS011;18248;51.522;7.020;2022-08-03T03:08:43;8.55;;;3.65;;
31638;SDS011;18248;51.522;7.020;2022-08-03T03:11:43;11.48;;;4.00;;
31638;SDS011;18248;51.522;7.020;2022-08-03T03:14:42;5.57;;;2.83;;
31638;SDS011;18248;51.522;7.020;2022-08-03T03:17:42;10.05;;;3.90;;
31638;SDS011;18248;51.522;7.020;2022-08-03T03:20:43;6.10;;;3.20;;
31638;SDS011;18248;51.522;7.020;2022-08-03T03:23:43;9.80;;;3.97;;
31638;SDS011;18248;51.522;7.020;2022-08-03T03:26:43;8.73;;;3.33;;
31638;SDS011;18248;51.522;7.020;2022-08-03T03:29:42;5.03;;;3.00;;
31638;SDS011;18248;51.522;7.020;2022-08-03T03:32:41;6.05;;;3.20;;
31638;SDS011;18248;51.522;7.020;2022-08-03T03:35:40;6.88;;;2.95;;
31638;SDS011;18248;51.522;7.020;2022-08-03T03:38:41;10.60;;;3.40;;
31638;SDS011;18248;51.522;7.020;2022-08-03T03:41:39;3.97;;;2.92;;
31638;SDS011;18248;51.522;7.020;2022-08-03T03:44:38;6.63;;;2.85;;
31638;SDS011;18248;51.522;7.020;2022-08-03T03:47:36;4.38;;;3.47;;
31638;SDS011;18248;51.522;7.020;2022-08-03T03:50:35;6.43;;;3.13;;
31638;SDS011;18248;51.522;7.020;2022-08-03T03:53:37;7.82;;;3.45;;
31638;SDS011;18248;51.522;7.020;2022-08-03T03:56:36;5.07;;;3.17;;
31638;SDS011;18248;51.522;7.020;2022-08-03T03:59:36;6.53;;;3.10;;
31638;SDS011;18248;51.522;7.020;2022-08-03T04:02:37;7.25;;;3.47;;
31638;SDS011;18248;51.522;7.020;2022-08-03T04:05:36;9.82;;;3.25;;
31638;SDS011;18248;51.522;7.020;2022-08-03T04:08:53;6.60;;;3.08;;
31638;SDS011;18248;51.522;7.020;2022-08-03T04:12:11;4.75;;;3.03;;
31638;SDS011;18248;51.522;7.020;2022-08-03T04:15:10;8.77;;;3.55;;
31638;SDS011;18248;51.522;7.020;2022-08-03T04:18:10;7.93;;;3.53;;
31638;SDS011;18248;51.522;7.020;2022-08-03T04:21:14;7.05;;;3.45;;
31638;SDS011;18248;51.522;7.020;2022-08-03T04:24:15;4.40;;;2.83;;
31638;SDS011;18248;51.522;7.020;2022-08-03T04:27:15;5.10;;;2.72;;
31638;SDS011;18248;51.522;7.020;2022-08-03T04:30:18;6.97;;;3.77;;
31638;SDS011;18248;51.522;7.020;2022-08-03T04:33:16;9.68;;;3.80;;
31638;SDS011;18248;51.522;7.020;2022-08-03T04:36:16;5.55;;;3.03;;
31638;SDS011;18248;51.522;7.020;2022-08-03T04:39:20;6.03;;;3.05;;
31638;SDS011;18248;51.522;7.020;2022-08-03T04:42:23;4.40;;;2.63;;
31638;SDS011;18248;51.522;7.020;2022-08-03T04:45:22;8.23;;;2.88;;
31638;SDS011;18248;51.522;7.020;2022-08-03T04:48:22;8.80;;;3.38;;
31638;SDS011;18248;51.522;7.020;2022-08-03T04:51:21;9.98;;;3.53;;
31638;SDS011;18248;51.522;7.020;2022-08-03T04:54:20;11.00;;;3.78;;
31638;SDS011;18248;51.522;7.020;2022-08-03T04:57:18;7.57;;;3.20;;
31638;SDS011;18248;51.522;7.020;2022-08-03T05:00:17;7.82;;;3.20;;
31638;SDS011;18248;51.522;7.020;2022-08-03T05:03:16;7.18;;;3.20;;
31638;SDS011;18248;51.522;7.020;2022-08-03T05:06:14;5.30;;;3.15;;
31638;SDS011;18248;51.522;7.020;2022-08-03T05:09:13;9.43;;;3.92;;
31638;SDS011;18248;51.522;7.020;2022-08-03T05:12:11;5.68;;;2.60;;
31638;SDS011;18248;51.522;7.020;2022-08-03T05:15:10;11.75;;;3.00;;
31638;SDS011;18248;51.522;7.020;2022-08-03T05:18:09;6.93;;;2.72;;
31638;SDS011;18248;51.522;7.020;2022-08-03T05:21:08;8.10;;;3.38;;
31638;SDS011;18248;51.522;7.020;2022-08-03T05:24:07;8.65;;;3.78;;
31638;SDS011;18248;51.522;7.020;2022-08-03T05:27:06;5.70;;;3.35;;
31638;SDS011;18248;51.522;7.020;2022-08-03T05:30:04;6.13;;;3.17;;
31638;SDS011;18248;51.522;7.020;2022-08-03T05:33:03;10.07;;;3.42;;
31638;SDS011;18248;51.522;7.020;2022-08-03T05:36:02;8.48;;;3.30;;
31638;SDS011;18248;51.522;7.020;2022-08-03T05:39:01;10.52;;;3.38;;
31638;SDS011;18248;51.522;7.020;2022-08-03T05:42:00;5.43;;;3.15;;
31638;SDS011;18248;51.522;7.020;2022-08-03T05:45:02;9.57;;;3.40;;
31638;SDS011;18248;51.522;7.020;2022-08-03T05:48:09;9.85;;;3.35;;
31638;SDS011;18248;51.522;7.020;2022-08-03T05:51:08;9.50;;;4.03;;
31638;SDS011;18248;51.522;7.020;2022-08-03T05:54:08;11.20;;;4.10;;
31638;SDS011;18248;51.522;7.020;2022-08-03T05:57:06;10.80;;;4.05;;
31638;SDS011;18248;51.522;7.020;2022-08-03T06:00:07;9.77;;;3.92;;
31638;SDS011;18248;51.522;7.020;2022-08-03T06:03:07;7.55;;;3.42;;
31638;SDS011;18248;51.522;7.020;2022-08-03T06:06:06;16.25;;;4.18;;
31638;SDS011;18248;51.522;7.020;2022-08-03T06:09:04;11.63;;;3.75;;
31638;SDS011;18248;51.522;7.020;2022-08-03T06:12:03;10.70;;;4.07;;
31638;SDS011;18248;51.522;7.020;2022-08-03T06:15:02;8.68;;;3.30;;
31638;SDS011;18248;51.522;7.020;2022-08-03T06:18:02;10.35;;;3.70;;
31638;SDS011;18248;51.522;7.020;2022-08-03T06:21:01;9.32;;;2.67;;
31638;SDS011;18248;51.522;7.020;2022-08-03T06:24:00;6.20;;;2.53;;
31638;SDS011;18248;51.522;7.020;2022-08-03T06:26:59;10.90;;;2.72;;
31638;SDS011;18248;51.522;7.020;2022-08-03T06:29:57;12.35;;;2.55;;
31638;SDS011;18248;51.522;7.020;2022-08-03T06:32:57;8.02;;;2.28;;
31638;SDS011;18248;51.522;7.020;2022-08-03T06:35:57;8.20;;;2.20;;
31638;SDS011;18248;51.522;7.020;2022-08-03T06:38:59;9.80;;;2.78;;
31638;SDS011;18248;51.522;7.020;2022-08-03T06:41:58;7.78;;;2.22;;
31638;SDS011;18248;51.522;7.020;2022-08-03T06:44:57;6.38;;;2.00;;
31638;SDS011;18248;51.522;7.020;2022-08-03T06:48:02;15.70;;;2.35;;
31638;SDS011;18248;51.522;7.020;2022-08-03T06:51:01;5.90;;;1.80;;
31638;SDS011;18248;51.522;7.020;2022-08-03T06:54:00;8.10;;;2.10;;
31638;SDS011;18248;51.522;7.020;2022-08-03T06:56:58;8.93;;;1.90;;
31638;SDS011;18248;51.522;7.020;2022-08-03T06:59:57;9.80;;;2.35;;
31638;SDS011;18248;51.522;7.020;2022-08-03T07:02:58;6.10;;;1.80;;
31638;SDS011;18248;51.522;7.020;2022-08-03T07:05:57;8.13;;;1.92;;
31638;SDS011;18248;51.522;7.020;2022-08-03T07:08:56;10.38;;;2.40;;
31638;SDS011;18248;51.522;7.020;2022-08-03T07:11:54;13.10;;;2.22;;
31638;SDS011;18248;51.522;7.020;2022-08-03T07:14:54;4.75;;;1.75;;
31638;SDS011;18248;51.522;7.020;2022-08-03T07:17:53;6.93;;;1.60;;
31638;SDS011;18248;51.522;7.020;2022-08-03T07:20:52;10.85;;;1.70;;
31638;SDS011;18248;51.522;7.020;2022-08-03T07:23:51;9.93;;;1.70;;
31638;SDS011;18248;51.522;7.020;2022-08-03T07:26:49;9.35;;;1.50;;
31638;SDS011;18248;51.522;7.020;2022-08-03T07:29:49;3.58;;;1.40;;
31638;SDS011;18248;51.522;7.020;2022-08-03T07:32:48;3.72;;;1.23;;
31638;SDS011;18248;51.522;7.020;2022-08-03T07:35:46;4.70;;;1.52;;
31638;SDS011;18248;51.522;7.020;2022-08-03T07:38:45;9.23;;;1.95;;
31638;SDS011;18248;51.522;7.020;2022-08-03T07:41:44;4.57;;;1.58;;
31638;SDS011;18248;51.522;7.020;2022-08-03T07:44:43;6.40;;;1.80;;
31638;SDS011;18248;51.522;7.020;2022-08-03T07:47:41;7.38;;;1.70;;
31638;SDS011;18248;51.522;7.020;2022-08-03T07:50:40;6.88;;;2.30;;
31638;SDS011;18248;51.522;7.020;2022-08-03T07:53:38;5.93;;;1.48;;
31638;SDS011;18248;51.522;7.020;2022-08-03T07:56:37;9.15;;;1.45;;
31638;SDS011;18248;51.522;7.020;2022-08-03T07:59:35;8.88;;;1.73;;
31638;SDS011;18248;51.522;7.020;2022-08-03T08:02:36;4.47;;;1.45;;
31638;SDS011;18248;51.522;7.020;2022-08-03T08:05:35;6.35;;;1.95;;
31638;SDS011;18248;51.522;7.020;2022-08-03T08:08:34;8.68;;;1.48;;
31638;SDS011;18248;51.522;7.020;2022-08-03T08:11:33;6.38;;;1.50;;
31638;SDS011;18248;51.522;7.020;2022-08-03T08:14:31;9.10;;;1.45;;
31638;SDS011;18248;51.522;7.020;2022-08-03T08:17:30;6.18;;;1.48;;
31638;SDS011;18248;51.522;7.020;2022-08-03T08:20:37;5.63;;;1.48;;
31638;SDS011;18248;51.522;7.020;2022-08-03T08:23:36;11.45;;;1.85;;
31638;SDS011;18248;51.522;7.020;2022-08-03T08:26:34;5.68;;;1.30;;
31638;SDS011;18248;51.522;7.020;2022-08-03T08:29:34;8.07;;;1.85;;
31638;SDS011;18248;51.522;7.020;2022-08-03T08:32:32;7.75;;;1.40;;
31638;SDS011;18248;51.522;7.020;2022-08-03T08:35:31;7.68;;;2.03;;
31638;SDS011;18248;51.522;7.020;2022-08-03T08:38:29;9.73;;;1.90;;
31638;SDS011;18248;51.522;7.020;2022-08-03T08:41:28;13.40;;;1.75;;
31638;SDS011;18248;51.522;7.020;2022-08-03T08:44:30;8.00;;;1.98;;
31638;SDS011;18248;51.522;7.020;2022-08-03T08:47:29;10.73;;;1.75;;
31638;SDS011;18248;51.522;7.020;2022-08-03T08:50:29;7.63;;;1.80;;
31638;SDS011;18248;51.522;7.020;2022-08-03T08:53:28;7.75;;;1.33;;
31638;SDS011;18248;51.522;7.020;2022-08-03T08:56:29;7.10;;;2.03;;
31638;SDS011;18248;51.522;7.020;2022-08-03T08:59:33;8.27;;;1.48;;
31638;SDS011;18248;51.522;7.020;2022-08-03T09:02:32;5.00;;;1.80;;
31638;SDS011;18248;51.522;7.020;2022-08-03T09:05:32;8.50;;;2.13;;
31638;SDS011;18248;51.522;7.020;2022-08-03T09:08:31;10.35;;;2.28;;
31638;SDS011;18248;51.522;7.020;2022-08-03T09:11:30;8.57;;;1.95;;
31638;SDS011;18248;51.522;7.020;2022-08-03T09:14:28;7.03;;;2.00;;
31638;SDS011;18248;51.522;7.020;2022-08-03T09:17:38;8.18;;;1.95;;
31638;SDS011;18248;51.522;7.020;2022-08-03T09:20:37;7.07;;;1.88;;
31638;SDS011;18248;51.522;7.020;2022-08-03T09:27:10;5.70;;;1.83;;
31638;SDS011;18248;51.522;7.020;2022-08-03T09:30:14;9.18;;;1.83;;
31638;SDS011;18248;51.522;7.020;2022-08-03T09:33:15;9.55;;;1.52;;
31638;SDS011;18248;51.522;7.020;2022-08-03T09:39:32;7.47;;;2.05;;
31638;SDS011;18248;51.522;7.020;2022-08-03T09:42:34;5.50;;;1.65;;
31638;SDS011;18248;51.522;7.020;2022-08-03T09:45:38;9.00;;;1.80;;
31638;SDS011;18248;51.522;7.020;2022-08-03T09:48:37;4.53;;;1.50;;
31638;SDS011;18248;51.522;7.020;2022-08-03T09:51:36;6.57;;;1.80;;
31638;SDS011;18248;51.522;7.020;2022-08-03T09:54:35;10.80;;;1.98;;
31638;SDS011;18248;51.522;7.020;2022-08-03T09:57:33;8.50;;;1.80;;
31638;SDS011;18248;51.522;7.020;2022-08-03T10:00:32;2.67;;;1.30;;
31638;SDS011;18248;51.522;7.020;2022-08-03T10:04:00;9.00;;;2.00;;
31638;SDS011;18248;51.522;7.020;2022-08-03T10:07:06;7.15;;;2.05;;
31638;SDS011;18248;51.522;7.020;2022-08-03T10:10:06;9.35;;;2.15;;
31638;SDS011;18248;51.522;7.020;2022-08-03T10:13:06;5.85;;;1.75;;
31638;SDS011;18248;51.522;7.020;2022-08-03T10:16:05;9.40;;;2.00;;
31638;SDS011;18248;51.522;7.020;2022-08-03T10:19:05;8.27;;;2.22;;
31638;SDS011;18248;51.522;7.020;2022-08-03T10:22:09;7.43;;;2.05;;
31638;SDS011;18248;51.522;7.020;2022-08-03T10:25:11;6.70;;;2.00;;
31638;SDS011;18248;51.522;7.020;2022-08-03T10:28:14;10.48;;;2.80;;
31638;SDS011;18248;51.522;7.020;2022-08-03T10:31:15;14.65;;;1.98;;
31638;SDS011;18248;51.522;7.020;2022-08-03T10:34:18;9.68;;;2.88;;
31638;SDS011;18248;51.522;7.020;2022-08-03T10:37:20;7.88;;;2.08;;
31638;SDS011;18248;51.522;7.020;2022-08-03T10:40:21;8.90;;;2.15;;
31638;SDS011;18248;51.522;7.020;2022-08-03T10:43:21;10.77;;;2.00;;
31638;SDS011;18248;51.522;7.020;2022-08-03T10:46:24;10.20;;;2.13;;
31638;SDS011;18248;51.522;7.020;2022-08-03T10:49:24;9.27;;;2.13;;
31638;SDS011;18248;51.522;7.020;2022-08-03T10:52:23;8.95;;;1.98;;
31638;SDS011;18248;51.522;7.020;2022-08-03T10:55:29;7.88;;;1.90;;
31638;SDS011;18248;51.522;7.020;2022-08-03T10:58:51;13.00;;;2.90;;
31638;SDS011;18248;51.522;7.020;2022-08-03T11:01:51;7.80;;;1.90;;
31638;SDS011;18248;51.522;7.020;2022-08-03T11:05:05;8.63;;;1.77;;
31638;SDS011;18248;51.522;7.020;2022-08-03T11:08:32;14.18;;;1.90;;
31638;SDS011;18248;51.522;7.020;2022-08-03T11:11:34;5.25;;;1.45;;
31638;SDS011;18248;51.522;7.020;2022-08-03T11:14:46;6.78;;;1.75;;
31638;SDS011;18248;51.522;7.020;2022-08-03T11:17:45;9.60;;;1.70;;
31638;SDS011;18248;51.522;7.020;2022-08-03T11:21:07;9.45;;;1.50;;
31638;SDS011;18248;51.522;7.020;2022-08-03T11:24:06;3.65;;;1.13;;
31638;SDS011;18248;51.522;7.020;2022-08-03T11:33:29;11.52;;;1.73;;
31638;SDS011;18248;51.522;7.020;2022-08-03T11:36:28;9.73;;;1.63;;
31638;SDS011;18248;51.522;7.020;2022-08-03T11:39:43;8.18;;;1.70;;
31638;SDS011;18248;51.522;7.020;2022-08-03T11:42:44;3.42;;;1.40;;
31638;SDS011;18248;51.522;7.020;2022-08-03T11:45:55;3.55;;;1.30;;
31638;SDS011;18248;51.522;7.020;2022-08-03T11:49:02;3.83;;;1.38;;
31638;SDS011;18248;51.522;7.020;2022-08-03T11:52:03;4.30;;;1.30;;
31638;SDS011;18248;51.522;7.020;2022-08-03T11:55:02;8.02;;;1.15;;
31638;SDS011;18248;51.522;7.020;2022-08-03T11:58:06;10.63;;;2.05;;
31638;SDS011;18248;51.522;7.020;2022-08-03T12:01:05;3.40;;;1.30;;
31638;SDS011;18248;51.522;7.020;2022-08-03T12:04:05;8.55;;;1.33;;
31638;SDS011;18248;51.522;7.020;2022-08-03T12:07:04;6.40;;;1.20;;
31638;SDS011;18248;51.522;7.020;2022-08-03T12:10:12;9.25;;;1.58;;
31638;SDS011;18248;51.522;7.020;2022-08-03T12:13:11;8.15;;;1.33;;
31638;SDS011;18248;51.522;7.020;2022-08-03T12:16:15;7.10;;;1.48;;
31638;SDS011;18248;51.522;7.020;2022-08-03T12:19:16;5.43;;;0.93;;
31638;SDS011;18248;51.522;7.020;2022-08-03T12:22:17;9.77;;;1.27;;
31638;SDS011;18248;51.522;7.020;2022-08-03T12:25:32;8.07;;;1.23;;
31638;SDS011;18248;51.522;7.020;2022-08-03T12:28:31;9.85;;;1.05;;
31638;SDS011;18248;51.522;7.020;2022-08-03T12:31:30;5.30;;;1.58;;
31638;SDS011;18248;51.522;7.020;2022-08-03T12:34:46;4.10;;;1.55;;
31638;SDS011;18248;51.522;7.020;2022-08-03T12:37:47;3.50;;;1.10;;
31638;SDS011;18248;51.522;7.020;2022-08-03T12:40:55;2.47;;;1.10;;
31638;SDS011;18248;51.522;7.020;2022-08-03T12:43:58;6.25;;;1.30;;
31638;SDS011;18248;51.522;7.020;2022-08-03T12:47:00;6.93;;;1.35;;
31638;SDS011;18248;51.522;7.020;2022-08-03T12:50:01;7.30;;;1.90;;
31638;SDS011;18248;51.522;7.020;2022-08-03T12:53:00;6.63;;;1.83;;
31638;SDS011;18248;51.522;7.020;2022-08-03T12:56:08;3.90;;;1.30;;
31638;SDS011;18248;51.522;7.020;2022-08-03T13:02:27;6.53;;;1.55;;
31638;SDS011;18248;51.522;7.020;2022-08-03T13:05:26;5.60;;;1.30;;
31638;SDS011;18248;51.522;7.020;2022-08-03T13:08:25;8.85;;;1.60;;
31638;SDS011;18248;51.522;7.020;2022-08-03T13:11:24;4.47;;;1.55;;
31638;SDS011;18248;51.522;7.020;2022-08-03T13:14:24;5.25;;;1.45;;
31638;SDS011;18248;51.522;7.020;2022-08-03T13:17:23;7.78;;;1.30;;
31638;SDS011;18248;51.522;7.020;2022-08-03T13:20:22;3.35;;;1.17;;
31638;SDS011;18248;51.522;7.020;2022-08-03T13:23:21;6.40;;;1.75;;
31638;SDS011;18248;51.522;7.020;2022-08-03T13:26:20;4.32;;;1.20;;
31638;SDS011;18248;51.522;7.020;2022-08-03T13:29:19;9.23;;;1.25;;
31638;SDS011;18248;51.522;7.020;2022-08-03T13:32:18;5.43;;;1.15;;
31638;SDS011;18248;51.522;7.020;2022-08-03T13:35:17;5.47;;;1.33;;
31638;SDS011;18248;51.522;7.020;2022-08-03T13:38:15;7.63;;;1.48;;
31638;SDS011;18248;51.522;7.020;2022-08-03T13:41:14;6.25;;;1.45;;
31638;SDS011;18248;51.522;7.020;2022-08-03T13:44:13;6.18;;;1.40;;
31638;SDS011;18248;51.522;7.020;2022-08-03T13:47:11;10.57;;;1.40;;
31638;SDS011;18248;51.522;7.020;2022-08-03T13:50:10;10.38;;;1.45;;
31638;SDS011;18248;51.522;7.020;2022-08-03T13:53:08;4.38;;;1.38;;
31638;SDS011;18248;51.522;7.020;2022-08-03T13:56:07;5.05;;;1.42;;
31638;SDS011;18248;51.522;7.020;2022-08-03T13:59:07;5.05;;;1.42;;
31638;SDS011;18248;51.522;7.020;2022-08-03T14:02:07;7.73;;;1.30;;
31638;SDS011;18248;51.522;7.020;2022-08-03T14:05:06;8.20;;;1.75;;
31638;SDS011;18248;51.522;7.020;2022-08-03T14:08:05;6.00;;;1.90;;
31638;SDS011;18248;51.522;7.020;2022-08-03T14:11:04;7.32;;;1.60;;
31638;SDS011;18248;51.522;7.020;2022-08-03T14:14:03;9.68;;;1.55;;
31638;SDS011;18248;51.522;7.020;2022-08-03T14:17:01;5.38;;;1.23;;
31638;SDS011;18248;51.522;7.020;2022-08-03T14:20:00;4.90;;;1.35;;
31638;SDS011;18248;51.522;7.020;2022-08-03T14:22:58;4.00;;;1.30;;
31638;SDS011;18248;51.522;7.020;2022-08-03T14:25:57;8.57;;;1.58;;
31638;SDS011;18248;51.522;7.020;2022-08-03T14:28:55;7.38;;;1.42;;
31638;SDS011;18248;51.522;7.020;2022-08-03T14:31:54;3.47;;;1.20;;
31638;SDS011;18248;51.522;7.020;2022-08-03T14:34:53;4.25;;;1.25;;
31638;SDS011;18248;51.522;7.020;2022-08-03T14:37:51;5.47;;;1.50;;
31638;SDS011;18248;51.522;7.020;2022-08-03T14:40:50;8.07;;;1.20;;
31638;SDS011;18248;51.522;7.020;2022-08-03T14:43:50;6.43;;;1.42;;
31638;SDS011;18248;51.522;7.020;2022-08-03T14:46:48;4.43;;;1.00;;
31638;SDS011;18248;51.522;7.020;2022-08-03T14:49:47;4.72;;;1.10;;
31638;SDS011;18248;51.522;7.020;2022-08-03T14:52:45;5.35;;;0.98;;
31638;SDS011;18248;51.522;7.020;2022-08-03T14:55:44;4.78;;;1.00;;
31638;SDS011;18248;51.522;7.020;2022-08-03T14:58:43;3.65;;;1.10;;
31638;SDS011;18248;51.522;7.020;2022-08-03T15:01:42;6.90;;;1.10;;
31638;SDS011;18248;51.522;7.020;2022-08-03T15:04:40;8.52;;;1.27;;
31638;SDS011;18248;51.522;7.020;2022-08-03T15:07:40;4.15;;;1.10;;
31638;SDS011;18248;51.522;7.020;2022-08-03T15:10:39;6.43;;;1.13;;
31638;SDS011;18248;51.522;7.020;2022-08-03T15:13:37;4.68;;;0.85;;
31638;SDS011;18248;51.522;7.020;2022-08-03T15:16:36;4.68;;;1.10;;
31638;SDS011;18248;51.522;7.020;2022-08-03T15:19:36;2.88;;;0.80;;
31638;SDS011;18248;51.522;7.020;2022-08-03T15:22:39;3.42;;;0.82;;
31638;SDS011;18248;51.522;7.020;2022-08-03T15:25:38;6.40;;;1.63;;
31638;SDS011;18248;51.522;7.020;2022-08-03T15:28:36;6.90;;;1.20;;
31638;SDS011;18248;51.522;7.020;2022-08-03T15:31:35;4.07;;;1.00;;
31638;SDS011;18248;51.522;7.020;2022-08-03T15:34:37;4.63;;;1.42;;
31638;SDS011;18248;51.522;7.020;2022-08-03T15:37:35;5.28;;;1.77;;
31638;SDS011;18248;51.522;7.020;2022-08-03T15:40:34;7.18;;;1.42;;
31638;SDS011;18248;51.522;7.020;2022-08-03T15:43:32;3.90;;;0.82;;
31638;SDS011;18248;51.522;7.020;2022-08-03T15:46:31;5.13;;;0.80;;
31638;SDS011;18248;51.522;7.020;2022-08-03T15:49:29;4.63;;;1.08;;
31638;SDS011;18248;51.522;7.020;2022-08-03T15:52:28;3.97;;;1.00;;
31638;SDS011;18248;51.522;7.020;2022-08-03T15:55:26;6.18;;;1.10;;
31638;SDS011;18248;51.522;7.020;2022-08-03T15:58:25;6.85;;;1.20;;
31638;SDS011;18248;51.522;7.020;2022-08-03T16:01:27;5.97;;;1.00;;
31638;SDS011;18248;51.522;7.020;2022-08-03T16:04:26;5.93;;;0.90;;
31638;SDS011;18248;51.522;7.020;2022-08-03T16:07:24;4.05;;;0.90;;
31638;SDS011;18248;51.522;7.020;2022-08-03T16:10:39;3.88;;;0.90;;
31638;SDS011;18248;51.522;7.020;2022-08-03T16:13:38;5.07;;;1.15;;
31638;SDS011;18248;51.522;7.020;2022-08-03T16:16:36;5.72;;;1.48;;
31638;SDS011;18248;51.522;7.020;2022-08-03T16:19:38;4.53;;;0.98;;
31638;SDS011;18248;51.522;7.020;2022-08-03T16:22:46;7.40;;;1.13;;
31638;SDS011;18248;51.522;7.020;2022-08-03T16:25:46;4.82;;;1.02;;
31638;SDS011;18248;51.522;7.020;2022-08-03T16:28:44;11.40;;;1.17;;
31638;SDS011;18248;51.522;7.020;2022-08-03T16:31:43;3.75;;;1.13;;
31638;SDS011;18248;51.522;7.020;2022-08-03T16:34:42;5.88;;;1.00;;
31638;SDS011;18248;51.522;7.020;2022-08-03T16:37:41;5.45;;;0.90;;
31638;SDS011;18248;51.522;7.020;2022-08-03T16:40:40;3.45;;;0.82;;
31638;SDS011;18248;51.522;7.020;2022-08-03T16:43:38;4.97;;;1.10;;
31638;SDS011;18248;51.522;7.020;2022-08-03T16:46:37;4.47;;;0.90;;
31638;SDS011;18248;51.522;7.020;2022-08-03T16:49:39;7.60;;;1.27;;
31638;SDS011;18248;51.522;7.020;2022-08-03T16:52:38;4.13;;;0.90;;
31638;SDS011;18248;51.522;7.020;2022-08-03T16:55:37;4.53;;;1.20;;
31638;SDS011;18248;51.522;7.020;2022-08-03T16:58:37;5.68;;;2.90;;
31638;SDS011;18248;51.522;7.020;2022-08-03T17:01:35;12.32;;;3.50;;
31638;SDS011;18248;51.522;7.020;2022-08-03T17:04:34;11.05;;;2.20;;
31638;SDS011;18248;51.522;7.020;2022-08-03T17:07:33;5.72;;;1.20;;
31638;SDS011;18248;51.522;7.020;2022-08-03T17:10:33;4.43;;;0.77;;
31638;SDS011;18248;51.522;7.020;2022-08-03T17:13:31;5.40;;;1.15;;
31638;SDS011;18248;51.522;7.020;2022-08-03T17:16:30;3.03;;;0.98;;
31638;SDS011;18248;51.522;7.020;2022-08-03T17:19:29;3.92;;;1.00;;
31638;SDS011;18248;51.522;7.020;2022-08-03T17:22:32;7.18;;;0.95;;
31638;SDS011;18248;51.522;7.020;2022-08-03T17:25:34;4.82;;;1.17;;
31638;SDS011;18248;51.522;7.020;2022-08-03T17:28:37;4.85;;;1.20;;
31638;SDS011;18248;51.522;7.020;2022-08-03T17:31:38;6.93;;;1.08;;
31638;SDS011;18248;51.522;7.020;2022-08-03T17:34:39;2.88;;;0.93;;
31638;SDS011;18248;51.522;7.020;2022-08-03T17:37:41;3.70;;;1.00;;
31638;SDS011;18248;51.522;7.020;2022-08-03T17:40:44;3.85;;;1.00;;
31638;SDS011;18248;51.522;7.020;2022-08-03T17:43:43;3.72;;;0.98;;
31638;SDS011;18248;51.522;7.020;2022-08-03T17:46:43;11.75;;;1.33;;
31638;SDS011;18248;51.522;7.020;2022-08-03T17:49:42;7.03;;;1.20;;
31638;SDS011;18248;51.522;7.020;2022-08-03T17:52:41;7.22;;;0.93;;
31638;SDS011;18248;51.522;7.020;2022-08-03T17:55:46;4.13;;;1.00;;
31638;SDS011;18248;51.522;7.020;2022-08-03T17:59:00;9.52;;;1.42;;
31638;SDS011;18248;51.522;7.020;2022-08-03T18:05:52;4.22;;;1.10;;
31638;SDS011;18248;51.522;7.020;2022-08-03T18:08:53;7.22;;;1.23;;
31638;SDS011;18248;51.522;7.020;2022-08-03T18:11:54;7.80;;;1.35;;
31638;SDS011;18248;51.522;7.020;2022-08-03T18:14:59;3.50;;;0.98;;
31638;SDS011;18248;51.522;7.020;2022-08-03T18:18:04;4.80;;;1.10;;
31638;SDS011;18248;51.522;7.020;2022-08-03T18:21:05;5.35;;;0.77;;
31638;SDS011;18248;51.522;7.020;2022-08-03T18:24:04;6.47;;;1.20;;
31638;SDS011;18248;51.522;7.020;2022-08-03T18:27:05;9.00;;;1.20;;
31638;SDS011;18248;51.522;7.020;2022-08-03T18:30:05;6.10;;;1.35;;
31638;SDS011;18248;51.522;7.020;2022-08-03T18:33:04;7.45;;;1.40;;
31638;SDS011;18248;51.522;7.020;2022-08-03T18:36:08;4.13;;;1.13;;
31638;SDS011;18248;51.522;7.020;2022-08-03T18:39:11;6.18;;;1.70;;